sensor_id;sensor_type;location;lat;lon;timestamp;P1;durP1;ratioP1;P2;durP2;ratioP2
8574;SDS011;4325;42.520;27.448;2022-10-19T00:02:26;7.03;;;4.40;;
8574;SDS011;4325;42.520;27.448;2022-10-19T00:04:53;8.03;;;5.30;;
8574;SDS011;4325;42.520;27.448;2022-10-19T00:07:19;7.63;;;5.10;;
8574;SDS011;4325;42.520;27.448;2022-10-19T00:09:46;9.13;;;4.97;;
8574;SDS011;4325;42.520;27.448;2022-10-19T00:12:14;8.10;;;4.60;;
8574;SDS011;4325;42.520;27.448;2022-10-19T00:14:41;7.10;;;4.53;;
8574;SDS011;4325;42.520;27.448;2022-10-19T00:17:08;7.60;;;4.67;;
8574;SDS011;4325;42.520;27.448;2022-10-19T00:19:35;9.70;;;5.13;;
8574;SDS011;4325;42.520;27.448;2022-10-19T00:22:02;8.20;;;4.60;;
8574;SDS011;4325;42.520;27.448;2022-10-19T00:24:29;7.43;;;4.43;;
8574;SDS011;4325;42.520;27.448;2022-10-19T00:26:56;9.77;;;5.40;;
8574;SDS011;4325;42.520;27.448;2022-10-19T00:29:24;12.90;;;5.40;;
8574;SDS011;4325;42.520;27.448;2022-10-19T00:31:51;7.93;;;5.10;;
8574;SDS011;4325;42.520;27.448;2022-10-19T00:34:18;11.23;;;5.43;;
8574;SDS011;4325;42.520;27.448;2022-10-19T00:36:45;5.90;;;5.07;;
8574;SDS011;4325;42.520;27.448;2022-10-19T00:39:12;9.17;;;4.93;;
8574;SDS011;4325;42.520;27.448;2022-10-19T00:41:40;8.57;;;5.53;;
8574;SDS011;4325;42.520;27.448;2022-10-19T00:47:09;8.70;;;6.17;;
8574;SDS011;4325;42.520;27.448;2022-10-19T00:49:36;6.90;;;5.30;;
8574;SDS011;4325;42.520;27.448;2022-10-19T00:52:09;9.70;;;5.40;;
8574;SDS011;4325;42.520;27.448;2022-10-19T00:54:38;7.67;;;5.20;;
8574;SDS011;4325;42.520;27.448;2022-10-19T00:57:07;6.80;;;5.30;;
8574;SDS011;4325;42.520;27.448;2022-10-19T00:59:35;13.27;;;5.20;;
8574;SDS011;4325;42.520;27.448;2022-10-19T01:02:04;8.77;;;5.50;;
8574;SDS011;4325;42.520;27.448;2022-10-19T01:04:33;10.97;;;6.50;;
8574;SDS011;4325;42.520;27.448;2022-10-19T01:07:03;10.10;;;6.40;;
8574;SDS011;4325;42.520;27.448;2022-10-19T01:09:32;10.47;;;6.50;;
8574;SDS011;4325;42.520;27.448;2022-10-19T01:12:00;9.43;;;7.10;;
8574;SDS011;4325;42.520;27.448;2022-10-19T01:14:34;8.37;;;5.67;;
8574;SDS011;4325;42.520;27.448;2022-10-19T01:17:12;9.60;;;5.60;;
8574;SDS011;4325;42.520;27.448;2022-10-19T01:20:03;6.00;;;5.40;;
8574;SDS011;4325;42.520;27.448;2022-10-19T01:23:04;9.90;;;5.33;;
8574;SDS011;4325;42.520;27.448;2022-10-19T01:25:50;8.30;;;5.00;;
8574;SDS011;4325;42.520;27.448;2022-10-19T01:28:28;8.30;;;5.30;;
8574;SDS011;4325;42.520;27.448;2022-10-19T01:31:06;8.93;;;5.87;;
8574;SDS011;4325;42.520;27.448;2022-10-19T01:33:46;11.27;;;6.47;;
8574;SDS011;4325;42.520;27.448;2022-10-19T01:36:26;10.13;;;5.53;;
8574;SDS011;4325;42.520;27.448;2022-10-19T01:38:59;8.20;;;5.60;;
8574;SDS011;4325;42.520;27.448;2022-10-19T01:41:32;11.27;;;6.27;;
8574;SDS011;4325;42.520;27.448;2022-10-19T01:44:10;6.67;;;5.47;;
8574;SDS011;4325;42.520;27.448;2022-10-19T01:46:43;7.23;;;5.27;;
8574;SDS011;4325;42.520;27.448;2022-10-19T01:49:18;11.10;;;5.83;;
8574;SDS011;4325;42.520;27.448;2022-10-19T01:51:50;10.20;;;5.47;;
8574;SDS011;4325;42.520;27.448;2022-10-19T01:54:23;8.37;;;6.03;;
8574;SDS011;4325;42.520;27.448;2022-10-19T01:56:54;8.00;;;5.10;;
8574;SDS011;4325;42.520;27.448;2022-10-19T01:59:24;9.87;;;5.50;;
8574;SDS011;4325;42.520;27.448;2022-10-19T02:01:53;9.97;;;5.40;;
8574;SDS011;4325;42.520;27.448;2022-10-19T02:04:21;9.37;;;5.47;;
8574;SDS011;4325;42.520;27.448;2022-10-19T02:06:50;7.47;;;5.17;;
8574;SDS011;4325;42.520;27.448;2022-10-19T02:09:19;7.93;;;4.87;;
8574;SDS011;4325;42.520;27.448;2022-10-19T02:11:46;7.93;;;5.10;;
8574;SDS011;4325;42.520;27.448;2022-10-19T02:14:17;6.10;;;4.70;;
8574;SDS011;4325;42.520;27.448;2022-10-19T02:16:48;10.13;;;4.67;;
8574;SDS011;4325;42.520;27.448;2022-10-19T02:19:20;7.30;;;5.60;;
8574;SDS011;4325;42.520;27.448;2022-10-19T02:21:48;10.33;;;5.30;;
8574;SDS011;4325;42.520;27.448;2022-10-19T02:24:17;7.83;;;5.63;;
8574;SDS011;4325;42.520;27.448;2022-10-19T02:26:44;10.17;;;5.50;;
8574;SDS011;4325;42.520;27.448;2022-10-19T02:29:11;11.27;;;5.50;;
8574;SDS011;4325;42.520;27.448;2022-10-19T02:31:40;10.10;;;5.80;;
8574;SDS011;4325;42.520;27.448;2022-10-19T02:34:07;9.27;;;6.03;;
8574;SDS011;4325;42.520;27.448;2022-10-19T02:36:36;8.40;;;5.77;;
8574;SDS011;4325;42.520;27.448;2022-10-19T02:39:03;7.63;;;6.03;;
8574;SDS011;4325;42.520;27.448;2022-10-19T02:41:33;9.53;;;5.60;;
8574;SDS011;4325;42.520;27.448;2022-10-19T02:44:04;9.73;;;5.83;;
8574;SDS011;4325;42.520;27.448;2022-10-19T02:46:37;6.93;;;5.00;;
8574;SDS011;4325;42.520;27.448;2022-10-19T02:49:07;10.77;;;6.03;;
8574;SDS011;4325;42.520;27.448;2022-10-19T02:51:38;11.10;;;5.37;;
8574;SDS011;4325;42.520;27.448;2022-10-19T02:54:06;7.53;;;5.10;;
8574;SDS011;4325;42.520;27.448;2022-10-19T02:56:34;8.83;;;5.40;;
8574;SDS011;4325;42.520;27.448;2022-10-19T02:59:01;17.30;;;5.80;;
8574;SDS011;4325;42.520;27.448;2022-10-19T03:01:28;7.47;;;6.17;;
8574;SDS011;4325;42.520;27.448;2022-10-19T03:03:55;8.10;;;6.07;;
8574;SDS011;4325;42.520;27.448;2022-10-19T03:06:22;8.43;;;6.10;;
8574;SDS011;4325;42.520;27.448;2022-10-19T03:08:50;7.70;;;5.67;;
8574;SDS011;4325;42.520;27.448;2022-10-19T03:11:17;9.67;;;5.70;;
8574;SDS011;4325;42.520;27.448;2022-10-19T03:13:44;10.63;;;5.50;;
8574;SDS011;4325;42.520;27.448;2022-10-19T03:16:12;7.93;;;5.73;;
8574;SDS011;4325;42.520;27.448;2022-10-19T03:18:39;7.50;;;5.57;;
8574;SDS011;4325;42.520;27.448;2022-10-19T03:21:06;6.37;;;5.60;;
8574;SDS011;4325;42.520;27.448;2022-10-19T03:23:35;9.57;;;6.00;;
8574;SDS011;4325;42.520;27.448;2022-10-19T03:26:04;8.03;;;5.60;;
8574;SDS011;4325;42.520;27.448;2022-10-19T03:28:32;10.50;;;5.50;;
8574;SDS011;4325;42.520;27.448;2022-10-19T03:30:59;12.27;;;6.10;;
8574;SDS011;4325;42.520;27.448;2022-10-19T03:33:26;11.43;;;6.13;;
8574;SDS011;4325;42.520;27.448;2022-10-19T03:38:42;10.50;;;6.70;;
8574;SDS011;4325;42.520;27.448;2022-10-19T03:41:11;6.57;;;5.90;;
8574;SDS011;4325;42.520;27.448;2022-10-19T03:43:38;7.27;;;6.43;;
8574;SDS011;4325;42.520;27.448;2022-10-19T03:46:06;8.63;;;6.87;;
8574;SDS011;4325;42.520;27.448;2022-10-19T03:48:33;11.20;;;5.87;;
8574;SDS011;4325;42.520;27.448;2022-10-19T03:51:01;9.07;;;6.60;;
8574;SDS011;4325;42.520;27.448;2022-10-19T03:53:30;11.27;;;6.70;;
8574;SDS011;4325;42.520;27.448;2022-10-19T03:56:00;16.17;;;6.93;;
8574;SDS011;4325;42.520;27.448;2022-10-19T03:58:30;11.17;;;6.57;;
8574;SDS011;4325;42.520;27.448;2022-10-19T04:00:59;13.27;;;6.60;;
8574;SDS011;4325;42.520;27.448;2022-10-19T04:03:26;12.67;;;7.33;;
8574;SDS011;4325;42.520;27.448;2022-10-19T04:06:00;11.97;;;7.00;;
8574;SDS011;4325;42.520;27.448;2022-10-19T04:08:28;12.37;;;7.20;;
8574;SDS011;4325;42.520;27.448;2022-10-19T04:10:57;12.03;;;7.33;;
8574;SDS011;4325;42.520;27.448;2022-10-19T04:13:25;13.00;;;6.93;;
8574;SDS011;4325;42.520;27.448;2022-10-19T04:15:53;9.53;;;7.83;;
8574;SDS011;4325;42.520;27.448;2022-10-19T04:18:20;12.43;;;8.13;;
8574;SDS011;4325;42.520;27.448;2022-10-19T04:20:47;14.67;;;7.33;;
8574;SDS011;4325;42.520;27.448;2022-10-19T04:23:14;10.60;;;7.57;;
8574;SDS011;4325;42.520;27.448;2022-10-19T04:25:41;11.60;;;8.40;;
8574;SDS011;4325;42.520;27.448;2022-10-19T04:28:08;12.83;;;9.00;;
8574;SDS011;4325;42.520;27.448;2022-10-19T04:30:35;10.20;;;7.33;;
8574;SDS011;4325;42.520;27.448;2022-10-19T04:33:03;15.37;;;7.47;;
8574;SDS011;4325;42.520;27.448;2022-10-19T04:35:30;12.00;;;7.37;;
8574;SDS011;4325;42.520;27.448;2022-10-19T04:37:57;13.77;;;7.90;;
8574;SDS011;4325;42.520;27.448;2022-10-19T04:40:24;11.60;;;8.20;;
8574;SDS011;4325;42.520;27.448;2022-10-19T04:42:51;12.77;;;8.23;;
8574;SDS011;4325;42.520;27.448;2022-10-19T04:45:17;14.93;;;8.80;;
8574;SDS011;4325;42.520;27.448;2022-10-19T04:47:44;16.93;;;8.23;;
8574;SDS011;4325;42.520;27.448;2022-10-19T04:50:13;11.50;;;7.97;;
8574;SDS011;4325;42.520;27.448;2022-10-19T04:52:39;16.93;;;9.13;;
8574;SDS011;4325;42.520;27.448;2022-10-19T04:55:09;14.50;;;8.50;;
8574;SDS011;4325;42.520;27.448;2022-10-19T04:57:35;13.30;;;8.30;;
8574;SDS011;4325;42.520;27.448;2022-10-19T05:00:02;16.30;;;7.60;;
8574;SDS011;4325;42.520;27.448;2022-10-19T05:02:30;14.03;;;8.20;;
8574;SDS011;4325;42.520;27.448;2022-10-19T05:04:57;16.97;;;8.67;;
8574;SDS011;4325;42.520;27.448;2022-10-19T05:07:25;15.93;;;8.23;;
8574;SDS011;4325;42.520;27.448;2022-10-19T05:09:52;14.73;;;8.37;;
8574;SDS011;4325;42.520;27.448;2022-10-19T05:12:19;15.30;;;8.30;;
8574;SDS011;4325;42.520;27.448;2022-10-19T05:14:46;15.30;;;8.07;;
8574;SDS011;4325;42.520;27.448;2022-10-19T05:17:12;9.90;;;7.10;;
8574;SDS011;4325;42.520;27.448;2022-10-19T05:19:39;12.67;;;7.13;;
8574;SDS011;4325;42.520;27.448;2022-10-19T05:22:06;12.40;;;6.60;;
8574;SDS011;4325;42.520;27.448;2022-10-19T05:24:35;11.13;;;7.53;;
8574;SDS011;4325;42.520;27.448;2022-10-19T05:27:02;13.37;;;8.10;;
8574;SDS011;4325;42.520;27.448;2022-10-19T05:29:29;14.27;;;9.20;;
8574;SDS011;4325;42.520;27.448;2022-10-19T05:31:57;11.33;;;6.37;;
8574;SDS011;4325;42.520;27.448;2022-10-19T05:34:24;13.40;;;7.03;;
8574;SDS011;4325;42.520;27.448;2022-10-19T05:36:52;8.63;;;7.70;;
8574;SDS011;4325;42.520;27.448;2022-10-19T05:39:20;13.30;;;7.67;;
8574;SDS011;4325;42.520;27.448;2022-10-19T05:41:49;13.67;;;7.70;;
8574;SDS011;4325;42.520;27.448;2022-10-19T05:44:16;11.43;;;8.00;;
8574;SDS011;4325;42.520;27.448;2022-10-19T05:46:44;12.17;;;8.40;;
8574;SDS011;4325;42.520;27.448;2022-10-19T05:49:12;17.43;;;8.80;;
8574;SDS011;4325;42.520;27.448;2022-10-19T05:51:39;14.57;;;8.57;;
8574;SDS011;4325;42.520;27.448;2022-10-19T05:54:06;10.90;;;8.10;;
8574;SDS011;4325;42.520;27.448;2022-10-19T05:56:33;15.77;;;8.33;;
8574;SDS011;4325;42.520;27.448;2022-10-19T05:59:03;15.27;;;8.73;;
8574;SDS011;4325;42.520;27.448;2022-10-19T06:01:31;14.13;;;8.83;;
8574;SDS011;4325;42.520;27.448;2022-10-19T06:03:59;12.37;;;8.47;;
8574;SDS011;4325;42.520;27.448;2022-10-19T06:06:27;11.47;;;8.90;;
8574;SDS011;4325;42.520;27.448;2022-10-19T06:08:56;15.47;;;8.40;;
8574;SDS011;4325;42.520;27.448;2022-10-19T06:11:24;12.87;;;8.63;;
8574;SDS011;4325;42.520;27.448;2022-10-19T06:13:53;20.70;;;8.83;;
8574;SDS011;4325;42.520;27.448;2022-10-19T06:16:23;15.33;;;7.93;;
8574;SDS011;4325;42.520;27.448;2022-10-19T06:18:51;10.87;;;8.93;;
8574;SDS011;4325;42.520;27.448;2022-10-19T06:21:19;9.63;;;7.53;;
8574;SDS011;4325;42.520;27.448;2022-10-19T06:23:48;10.90;;;7.47;;
8574;SDS011;4325;42.520;27.448;2022-10-19T06:26:16;7.80;;;6.03;;
8574;SDS011;4325;42.520;27.448;2022-10-19T06:28:43;8.47;;;5.93;;
8574;SDS011;4325;42.520;27.448;2022-10-19T06:31:11;7.90;;;5.13;;
8574;SDS011;4325;42.520;27.448;2022-10-19T06:33:40;7.57;;;4.27;;
8574;SDS011;4325;42.520;27.448;2022-10-19T06:36:09;5.60;;;4.63;;
8574;SDS011;4325;42.520;27.448;2022-10-19T06:38:37;5.00;;;4.17;;
8574;SDS011;4325;42.520;27.448;2022-10-19T06:41:05;6.37;;;4.27;;
8574;SDS011;4325;42.520;27.448;2022-10-19T06:43:32;6.20;;;4.10;;
8574;SDS011;4325;42.520;27.448;2022-10-19T06:46:02;5.30;;;4.50;;
8574;SDS011;4325;42.520;27.448;2022-10-19T06:48:29;15.57;;;4.70;;
8574;SDS011;4325;42.520;27.448;2022-10-19T06:50:58;10.63;;;4.40;;
8574;SDS011;4325;42.520;27.448;2022-10-19T06:53:26;7.93;;;5.17;;
8574;SDS011;4325;42.520;27.448;2022-10-19T06:55:55;6.03;;;4.70;;
8574;SDS011;4325;42.520;27.448;2022-10-19T06:58:22;7.90;;;3.83;;
8574;SDS011;4325;42.520;27.448;2022-10-19T07:00:53;4.10;;;3.70;;
8574;SDS011;4325;42.520;27.448;2022-10-19T07:03:21;7.67;;;4.10;;
8574;SDS011;4325;42.520;27.448;2022-10-19T07:05:51;5.47;;;4.03;;
8574;SDS011;4325;42.520;27.448;2022-10-19T07:08:20;6.47;;;4.17;;
8574;SDS011;4325;42.520;27.448;2022-10-19T07:10:48;6.13;;;3.37;;
8574;SDS011;4325;42.520;27.448;2022-10-19T07:13:16;5.90;;;3.60;;
8574;SDS011;4325;42.520;27.448;2022-10-19T07:15:42;9.37;;;3.77;;
8574;SDS011;4325;42.520;27.448;2022-10-19T07:18:09;4.90;;;3.83;;
8574;SDS011;4325;42.520;27.448;2022-10-19T07:20:36;6.67;;;4.00;;
8574;SDS011;4325;42.520;27.448;2022-10-19T07:23:03;6.97;;;4.03;;
8574;SDS011;4325;42.520;27.448;2022-10-19T07:25:32;6.50;;;3.40;;
8574;SDS011;4325;42.520;27.448;2022-10-19T07:27:58;7.03;;;3.33;;
8574;SDS011;4325;42.520;27.448;2022-10-19T07:30:25;5.00;;;3.53;;
8574;SDS011;4325;42.520;27.448;2022-10-19T07:32:52;7.97;;;3.70;;
8574;SDS011;4325;42.520;27.448;2022-10-19T07:35:19;6.87;;;3.27;;
8574;SDS011;4325;42.520;27.448;2022-10-19T07:37:46;13.20;;;4.17;;
8574;SDS011;4325;42.520;27.448;2022-10-19T07:40:13;7.17;;;3.93;;
8574;SDS011;4325;42.520;27.448;2022-10-19T07:42:41;4.47;;;3.00;;
8574;SDS011;4325;42.520;27.448;2022-10-19T07:45:08;6.00;;;3.20;;
8574;SDS011;4325;42.520;27.448;2022-10-19T07:47:35;5.03;;;3.13;;
8574;SDS011;4325;42.520;27.448;2022-10-19T07:50:02;4.77;;;2.73;;
8574;SDS011;4325;42.520;27.448;2022-10-19T07:52:30;7.50;;;3.47;;
8574;SDS011;4325;42.520;27.448;2022-10-19T07:54:57;5.77;;;3.40;;
8574;SDS011;4325;42.520;27.448;2022-10-19T07:57:24;7.27;;;2.90;;
8574;SDS011;4325;42.520;27.448;2022-10-19T07:59:53;4.20;;;2.93;;
8574;SDS011;4325;42.520;27.448;2022-10-19T08:02:20;9.77;;;3.67;;
8574;SDS011;4325;42.520;27.448;2022-10-19T08:04:46;11.27;;;3.47;;
8574;SDS011;4325;42.520;27.448;2022-10-19T08:07:13;4.23;;;2.90;;
8574;SDS011;4325;42.520;27.448;2022-10-19T08:09:40;6.20;;;3.40;;
8574;SDS011;4325;42.520;27.448;2022-10-19T08:12:07;4.83;;;3.00;;
8574;SDS011;4325;42.520;27.448;2022-10-19T08:14:34;3.90;;;3.00;;
8574;SDS011;4325;42.520;27.448;2022-10-19T08:17:02;4.20;;;3.30;;
8574;SDS011;4325;42.520;27.448;2022-10-19T08:19:29;6.40;;;3.47;;
8574;SDS011;4325;42.520;27.448;2022-10-19T08:21:56;7.47;;;4.20;;
8574;SDS011;4325;42.520;27.448;2022-10-19T08:24:23;5.00;;;3.47;;
8574;SDS011;4325;42.520;27.448;2022-10-19T08:26:50;10.57;;;3.40;;
8574;SDS011;4325;42.520;27.448;2022-10-19T08:29:17;6.97;;;3.33;;
8574;SDS011;4325;42.520;27.448;2022-10-19T08:31:46;4.80;;;3.50;;
8574;SDS011;4325;42.520;27.448;2022-10-19T08:34:15;7.20;;;3.57;;
8574;SDS011;4325;42.520;27.448;2022-10-19T08:36:42;6.57;;;3.00;;
8574;SDS011;4325;42.520;27.448;2022-10-19T08:39:10;6.17;;;3.23;;
8574;SDS011;4325;42.520;27.448;2022-10-19T08:41:43;6.67;;;3.10;;
8574;SDS011;4325;42.520;27.448;2022-10-19T08:44:37;4.83;;;2.80;;
8574;SDS011;4325;42.520;27.448;2022-10-19T08:47:17;7.33;;;2.60;;
8574;SDS011;4325;42.520;27.448;2022-10-19T08:49:57;5.97;;;2.90;;
8574;SDS011;4325;42.520;27.448;2022-10-19T08:52:25;7.23;;;3.13;;
8574;SDS011;4325;42.520;27.448;2022-10-19T08:54:56;5.43;;;2.97;;
8574;SDS011;4325;42.520;27.448;2022-10-19T08:57:28;5.60;;;3.00;;
8574;SDS011;4325;42.520;27.448;2022-10-19T09:00:05;6.83;;;2.90;;
8574;SDS011;4325;42.520;27.448;2022-10-19T09:02:40;4.67;;;2.83;;
8574;SDS011;4325;42.520;27.448;2022-10-19T09:05:21;4.57;;;2.90;;
8574;SDS011;4325;42.520;27.448;2022-10-19T09:07:54;10.40;;;3.23;;
8574;SDS011;4325;42.520;27.448;2022-10-19T09:10:22;7.40;;;3.17;;
8574;SDS011;4325;42.520;27.448;2022-10-19T09:12:55;7.40;;;3.17;;
8574;SDS011;4325;42.520;27.448;2022-10-19T09:15:25;4.40;;;3.00;;
8574;SDS011;4325;42.520;27.448;2022-10-19T09:17:54;5.60;;;2.77;;
8574;SDS011;4325;42.520;27.448;2022-10-19T09:20:24;5.13;;;2.70;;
8574;SDS011;4325;42.520;27.448;2022-10-19T09:23:01;6.63;;;2.63;;
8574;SDS011;4325;42.520;27.448;2022-10-19T09:25:30;11.80;;;2.70;;
8574;SDS011;4325;42.520;27.448;2022-10-19T09:28:02;4.33;;;2.73;;
8574;SDS011;4325;42.520;27.448;2022-10-19T09:30:39;7.33;;;2.60;;
8574;SDS011;4325;42.520;27.448;2022-10-19T09:33:11;4.53;;;2.63;;
8574;SDS011;4325;42.520;27.448;2022-10-19T09:35:45;3.60;;;2.40;;
8574;SDS011;4325;42.520;27.448;2022-10-19T09:38:14;6.07;;;2.53;;
8574;SDS011;4325;42.520;27.448;2022-10-19T09:40:44;7.20;;;3.17;;
8574;SDS011;4325;42.520;27.448;2022-10-19T09:43:10;6.20;;;3.00;;
8574;SDS011;4325;42.520;27.448;2022-10-19T09:45:48;9.70;;;2.63;;
8574;SDS011;4325;42.520;27.448;2022-10-19T09:48:19;6.50;;;2.73;;
8574;SDS011;4325;42.520;27.448;2022-10-19T09:50:54;5.13;;;2.80;;
8574;SDS011;4325;42.520;27.448;2022-10-19T09:53:23;7.47;;;2.53;;
8574;SDS011;4325;42.520;27.448;2022-10-19T09:55:56;4.60;;;2.77;;
8574;SDS011;4325;42.520;27.448;2022-10-19T09:58:25;6.63;;;2.77;;
8574;SDS011;4325;42.520;27.448;2022-10-19T10:00:54;4.30;;;2.40;;
8574;SDS011;4325;42.520;27.448;2022-10-19T10:03:23;6.90;;;2.97;;
8574;SDS011;4325;42.520;27.448;2022-10-19T10:05:55;8.37;;;2.60;;
8574;SDS011;4325;42.520;27.448;2022-10-19T10:08:24;5.43;;;2.60;;
8574;SDS011;4325;42.520;27.448;2022-10-19T10:10:55;7.23;;;2.90;;
8574;SDS011;4325;42.520;27.448;2022-10-19T10:13:33;8.97;;;3.03;;
8574;SDS011;4325;42.520;27.448;2022-10-19T10:16:03;9.40;;;2.60;;
8574;SDS011;4325;42.520;27.448;2022-10-19T10:18:34;5.07;;;2.63;;
8574;SDS011;4325;42.520;27.448;2022-10-19T10:21:10;8.07;;;2.30;;
8574;SDS011;4325;42.520;27.448;2022-10-19T10:23:39;9.63;;;2.93;;
8574;SDS011;4325;42.520;27.448;2022-10-19T10:26:14;7.30;;;2.73;;
8574;SDS011;4325;42.520;27.448;2022-10-19T10:28:45;3.97;;;2.63;;
8574;SDS011;4325;42.520;27.448;2022-10-19T10:31:14;5.73;;;2.60;;
8574;SDS011;4325;42.520;27.448;2022-10-19T10:33:44;7.47;;;2.30;;
8574;SDS011;4325;42.520;27.448;2022-10-19T10:36:21;5.80;;;2.20;;
8574;SDS011;4325;42.520;27.448;2022-10-19T10:38:50;8.00;;;2.53;;
8574;SDS011;4325;42.520;27.448;2022-10-19T10:41:22;3.33;;;2.43;;
8574;SDS011;4325;42.520;27.448;2022-10-19T10:43:54;5.50;;;2.40;;
8574;SDS011;4325;42.520;27.448;2022-10-19T10:46:23;8.70;;;2.63;;
8574;SDS011;4325;42.520;27.448;2022-10-19T10:48:54;8.03;;;2.40;;
8574;SDS011;4325;42.520;27.448;2022-10-19T10:51:26;4.27;;;2.47;;
8574;SDS011;4325;42.520;27.448;2022-10-19T10:54:08;3.63;;;2.40;;
8574;SDS011;4325;42.520;27.448;2022-10-19T10:56:42;5.07;;;2.47;;
8574;SDS011;4325;42.520;27.448;2022-10-19T10:59:11;10.77;;;2.60;;
8574;SDS011;4325;42.520;27.448;2022-10-19T11:01:47;6.80;;;2.93;;
8574;SDS011;4325;42.520;27.448;2022-10-19T11:04:22;6.47;;;2.43;;
8574;SDS011;4325;42.520;27.448;2022-10-19T11:06:56;2.60;;;2.27;;
8574;SDS011;4325;42.520;27.448;2022-10-19T11:09:28;2.47;;;2.17;;
8574;SDS011;4325;42.520;27.448;2022-10-19T11:12:00;5.60;;;2.47;;
8574;SDS011;4325;42.520;27.448;2022-10-19T11:14:31;4.10;;;2.23;;
8574;SDS011;4325;42.520;27.448;2022-10-19T11:17:04;4.70;;;2.10;;
8574;SDS011;4325;42.520;27.448;2022-10-19T11:19:38;6.77;;;2.40;;
8574;SDS011;4325;42.520;27.448;2022-10-19T11:22:14;8.73;;;3.60;;
8574;SDS011;4325;42.520;27.448;2022-10-19T11:24:50;8.47;;;3.00;;
8574;SDS011;4325;42.520;27.448;2022-10-19T11:27:44;5.53;;;2.30;;
8574;SDS011;4325;42.520;27.448;2022-10-19T11:30:17;6.83;;;2.77;;
8574;SDS011;4325;42.520;27.448;2022-10-19T11:32:49;8.13;;;2.53;;
8574;SDS011;4325;42.520;27.448;2022-10-19T11:35:34;8.37;;;2.77;;
8574;SDS011;4325;42.520;27.448;2022-10-19T11:41:09;5.93;;;2.77;;
8574;SDS011;4325;42.520;27.448;2022-10-19T11:43:49;8.47;;;3.10;;
8574;SDS011;4325;42.520;27.448;2022-10-19T11:46:33;6.30;;;1.83;;
8574;SDS011;4325;42.520;27.448;2022-10-19T11:49:18;3.53;;;2.40;;
8574;SDS011;4325;42.520;27.448;2022-10-19T11:51:57;2.78;;;2.33;;
8574;SDS011;4325;42.520;27.448;2022-10-19T11:54:36;6.47;;;2.67;;
8574;SDS011;4325;42.520;27.448;2022-10-19T11:57:18;7.13;;;2.63;;
8574;SDS011;4325;42.520;27.448;2022-10-19T11:59:53;4.32;;;1.92;;
8574;SDS011;4325;42.520;27.448;2022-10-19T12:02:40;6.13;;;2.60;;
8574;SDS011;4325;42.520;27.448;2022-10-19T12:05:28;6.68;;;2.42;;
8574;SDS011;4325;42.520;27.448;2022-10-19T12:08:04;5.27;;;2.40;;
8574;SDS011;4325;42.520;27.448;2022-10-19T12:10:49;7.77;;;2.47;;
8574;SDS011;4325;42.520;27.448;2022-10-19T12:13:25;7.57;;;2.83;;
8574;SDS011;4325;42.520;27.448;2022-10-19T12:15:55;6.23;;;2.10;;
8574;SDS011;4325;42.520;27.448;2022-10-19T12:18:27;7.83;;;2.70;;
8574;SDS011;4325;42.520;27.448;2022-10-19T12:20:58;3.67;;;2.17;;
8574;SDS011;4325;42.520;27.448;2022-10-19T12:23:29;5.00;;;1.90;;
8574;SDS011;4325;42.520;27.448;2022-10-19T12:26:01;4.35;;;1.40;;
8574;SDS011;4325;42.520;27.448;2022-10-19T12:28:33;8.20;;;1.98;;
8574;SDS011;4325;42.520;27.448;2022-10-19T12:31:03;7.78;;;2.05;;
8574;SDS011;4325;42.520;27.448;2022-10-19T12:33:35;2.85;;;2.22;;
8574;SDS011;4325;42.520;27.448;2022-10-19T12:39:01;7.40;;;2.00;;
8574;SDS011;4325;42.520;27.448;2022-10-19T12:41:42;5.88;;;2.40;;
8574;SDS011;4325;42.520;27.448;2022-10-19T12:44:27;4.03;;;2.13;;
8574;SDS011;4325;42.520;27.448;2022-10-19T12:47:09;3.28;;;2.03;;
8574;SDS011;4325;42.520;27.448;2022-10-19T12:49:44;4.22;;;2.95;;
8574;SDS011;4325;42.520;27.448;2022-10-19T12:52:13;5.22;;;2.70;;
8574;SDS011;4325;42.520;27.448;2022-10-19T12:54:42;8.15;;;2.60;;
8574;SDS011;4325;42.520;27.448;2022-10-19T12:59:59;6.05;;;3.15;;
8574;SDS011;4325;42.520;27.448;2022-10-19T13:02:32;3.85;;;2.58;;
8574;SDS011;4325;42.520;27.448;2022-10-19T13:05:01;8.18;;;2.78;;
8574;SDS011;4325;42.520;27.448;2022-10-19T13:07:30;5.47;;;2.42;;
8574;SDS011;4325;42.520;27.448;2022-10-19T13:10:02;8.50;;;3.03;;
8574;SDS011;4325;42.520;27.448;2022-10-19T13:12:42;7.13;;;3.22;;
8574;SDS011;4325;42.520;27.448;2022-10-19T13:21:46;9.18;;;2.97;;
8574;SDS011;4325;42.520;27.448;2022-10-19T13:24:37;10.90;;;3.08;;
8574;SDS011;4325;42.520;27.448;2022-10-19T13:36:20;6.82;;;3.35;;
8574;SDS011;4325;42.520;27.448;2022-10-19T13:39:02;3.38;;;2.50;;
8574;SDS011;4325;42.520;27.448;2022-10-19T13:41:44;5.47;;;2.65;;
8574;SDS011;4325;42.520;27.448;2022-10-19T13:44:27;5.13;;;2.47;;
8574;SDS011;4325;42.520;27.448;2022-10-19T13:47:13;5.15;;;2.50;;
8574;SDS011;4325;42.520;27.448;2022-10-19T13:53:06;6.18;;;2.45;;
8574;SDS011;4325;42.520;27.448;2022-10-19T14:01:56;6.72;;;2.20;;
8574;SDS011;4325;42.520;27.448;2022-10-19T14:04:42;7.97;;;2.78;;
8574;SDS011;4325;42.520;27.448;2022-10-19T14:07:19;10.88;;;3.13;;
8574;SDS011;4325;42.520;27.448;2022-10-19T14:12:39;8.90;;;2.65;;
8574;SDS011;4325;42.520;27.448;2022-10-19T14:15:15;14.05;;;3.42;;
8574;SDS011;4325;42.520;27.448;2022-10-19T14:17:46;19.23;;;16.65;;
8574;SDS011;4325;42.520;27.448;2022-10-19T14:20:23;7.30;;;3.67;;
8574;SDS011;4325;42.520;27.448;2022-10-19T14:22:55;4.67;;;2.90;;
8574;SDS011;4325;42.520;27.448;2022-10-19T14:25:22;7.23;;;2.77;;
8574;SDS011;4325;42.520;27.448;2022-10-19T14:27:53;8.23;;;4.43;;
8574;SDS011;4325;42.520;27.448;2022-10-19T14:30:25;6.33;;;2.97;;
8574;SDS011;4325;42.520;27.448;2022-10-19T14:32:54;4.23;;;2.97;;
8574;SDS011;4325;42.520;27.448;2022-10-19T14:35:22;7.43;;;2.67;;
8574;SDS011;4325;42.520;27.448;2022-10-19T14:37:56;9.30;;;3.13;;
8574;SDS011;4325;42.520;27.448;2022-10-19T14:40:26;12.13;;;3.00;;
8574;SDS011;4325;42.520;27.448;2022-10-19T14:42:54;8.87;;;3.00;;
8574;SDS011;4325;42.520;27.448;2022-10-19T14:45:22;4.77;;;3.07;;
8574;SDS011;4325;42.520;27.448;2022-10-19T14:47:52;11.90;;;3.03;;
8574;SDS011;4325;42.520;27.448;2022-10-19T14:50:22;7.03;;;3.00;;
8574;SDS011;4325;42.520;27.448;2022-10-19T14:52:54;5.07;;;3.00;;
8574;SDS011;4325;42.520;27.448;2022-10-19T14:55:29;12.00;;;4.00;;
8574;SDS011;4325;42.520;27.448;2022-10-19T14:58:01;7.03;;;3.80;;
8574;SDS011;4325;42.520;27.448;2022-10-19T15:00:32;12.43;;;3.70;;
8574;SDS011;4325;42.520;27.448;2022-10-19T15:02:59;7.70;;;3.70;;
8574;SDS011;4325;42.520;27.448;2022-10-19T15:05:30;9.43;;;4.67;;
8574;SDS011;4325;42.520;27.448;2022-10-19T15:08:06;5.83;;;3.47;;
8574;SDS011;4325;42.520;27.448;2022-10-19T15:10:39;10.33;;;4.00;;
8574;SDS011;4325;42.520;27.448;2022-10-19T15:13:14;8.93;;;4.00;;
8574;SDS011;4325;42.520;27.448;2022-10-19T15:15:49;10.03;;;3.80;;
8574;SDS011;4325;42.520;27.448;2022-10-19T15:18:17;14.33;;;3.90;;
8574;SDS011;4325;42.520;27.448;2022-10-19T15:20:47;12.27;;;3.80;;
8574;SDS011;4325;42.520;27.448;2022-10-19T15:23:35;13.13;;;4.13;;
8574;SDS011;4325;42.520;27.448;2022-10-19T15:26:12;8.00;;;4.60;;
8574;SDS011;4325;42.520;27.448;2022-10-19T15:28:42;9.40;;;3.93;;
8574;SDS011;4325;42.520;27.448;2022-10-19T15:31:13;11.87;;;3.90;;
8574;SDS011;4325;42.520;27.448;2022-10-19T15:33:46;16.13;;;4.63;;
8574;SDS011;4325;42.520;27.448;2022-10-19T15:36:16;12.27;;;5.67;;
8574;SDS011;4325;42.520;27.448;2022-10-19T15:38:46;10.47;;;3.93;;
8574;SDS011;4325;42.520;27.448;2022-10-19T15:41:16;6.47;;;4.00;;
8574;SDS011;4325;42.520;27.448;2022-10-19T15:43:46;7.50;;;4.50;;
8574;SDS011;4325;42.520;27.448;2022-10-19T15:46:22;8.00;;;4.00;;
8574;SDS011;4325;42.520;27.448;2022-10-19T15:48:55;11.33;;;4.70;;
8574;SDS011;4325;42.520;27.448;2022-10-19T15:54:16;10.00;;;5.20;;
8574;SDS011;4325;42.520;27.448;2022-10-19T15:56:43;19.50;;;7.03;;
8574;SDS011;4325;42.520;27.448;2022-10-19T15:59:13;22.33;;;10.73;;
8574;SDS011;4325;42.520;27.448;2022-10-19T16:01:41;19.83;;;8.30;;
8574;SDS011;4325;42.520;27.448;2022-10-19T16:04:09;13.23;;;8.87;;
8574;SDS011;4325;42.520;27.448;2022-10-19T16:06:37;14.43;;;6.33;;